createdAt,value
2022-10-15T00:03:33.290Z,98550.63
2022-10-15T00:08:37.377Z,98548.63
2022-10-15T00:13:40.561Z,98537.06
2022-10-15T00:18:43.669Z,98536.44
2022-10-15T00:23:48.304Z,98538.56
2022-10-15T00:28:53.362Z,98521.06
2022-10-15T00:34:00.144Z,98525.44
2022-10-15T00:39:06.326Z,98522.88
2022-10-15T00:44:46.479Z,98520.66
2022-10-15T00:49:55.091Z,98514.94
2022-10-15T00:55:03.257Z,98507.91
2022-10-15T01:00:09.034Z,98503.78
2022-10-15T01:05:12.349Z,98499.47
2022-10-15T01:10:18.263Z,98509.00
2022-10-15T01:15:27.049Z,98513.34
2022-10-15T01:20:45.774Z,98515.91
2022-10-15T01:26:00.029Z,98517.97
2022-10-15T01:31:08.995Z,98517.38
2022-10-15T01:36:18.481Z,98525.88
2022-10-15T01:41:28.019Z,98533.34
2022-10-15T01:46:37.478Z,98529.03
2022-10-15T01:51:43.844Z,98526.81
2022-10-15T01:56:50.508Z,98516.53
2022-10-15T02:01:58.411Z,98515.47
2022-10-15T02:07:05.132Z,98499.97
2022-10-15T02:12:53.540Z,98502.25
2022-10-15T02:18:02.471Z,98508.69
2022-10-15T02:23:11.009Z,98509.94
2022-10-15T02:28:15.915Z,98507.72
2022-10-15T02:33:21.685Z,98495.94
2022-10-15T02:38:25.647Z,98498.63
2022-10-15T02:43:28.406Z,98523.00
2022-10-15T02:48:33.239Z,98509.59
2022-10-15T02:53:36.141Z,98512.50
2022-10-15T02:58:39.906Z,98514.13
2022-10-15T03:03:45.355Z,98519.94
2022-10-15T03:08:48.308Z,98519.13
2022-10-15T03:13:51.071Z,98512.34
2022-10-15T03:18:55.481Z,98503.47
2022-10-15T03:23:59.539Z,98492.75
2022-10-15T03:29:03.050Z,98503.69
2022-10-15T03:34:19.944Z,98496.69
2022-10-15T03:39:23.197Z,98485.75
2022-10-15T03:44:31.129Z,98497.75
2022-10-15T03:49:46.269Z,98489.09
2022-10-15T03:54:49.337Z,98481.06
2022-10-15T03:59:55.343Z,98463.00
2022-10-15T04:05:01.880Z,98480.66
2022-10-15T04:10:05.027Z,98487.69
2022-10-15T04:15:13.938Z,98490.81
2022-10-15T04:20:25.498Z,98494.53
2022-10-15T04:25:28.325Z,98503.41
2022-10-15T04:30:31.124Z,98502.81
2022-10-15T04:35:37.916Z,98517.88
2022-10-15T04:40:44.662Z,98512.94
2022-10-15T04:45:47.401Z,98506.97
2022-10-15T04:50:56.179Z,98505.34
2022-10-15T04:56:01.968Z,98504.28
2022-10-15T05:01:06.748Z,98487.59
2022-10-15T05:06:24.011Z,98485.72
2022-10-15T05:11:31.760Z,98484.31
2022-10-15T05:16:35.068Z,98480.22
2022-10-15T05:21:40.000Z,98482.69
2022-10-15T05:26:50.280Z,98487.25
2022-10-15T05:31:53.297Z,98493.88
2022-10-15T05:37:01.176Z,98494.91
2022-10-15T05:42:04.001Z,98509.34
2022-10-15T05:47:16.649Z,98518.47
2022-10-15T05:52:21.572Z,98515.78
2022-10-15T05:57:43.056Z,98510.41
2022-10-15T06:02:45.906Z,98506.31
2022-10-15T06:07:50.015Z,98505.50
2022-10-15T06:12:52.712Z,98506.53
2022-10-15T06:17:55.387Z,98508.38
2022-10-15T06:22:59.861Z,98516.06
2022-10-15T06:28:03.361Z,98528.22
2022-10-15T06:33:16.099Z,98530.28
2022-10-15T06:38:20.563Z,98533.94
2022-10-15T06:43:23.526Z,98542.00
2022-10-15T06:48:26.202Z,98539.09
2022-10-15T06:53:30.829Z,98541.09
2022-10-15T06:58:33.554Z,98543.78
2022-10-15T07:03:38.907Z,98554.28
2022-10-15T07:08:44.977Z,98552.44
2022-10-15T07:13:47.663Z,98546.63
2022-10-15T07:18:50.353Z,98545.34
2022-10-15T07:23:54.397Z,98545.75
2022-10-15T07:28:57.192Z,98551.03
2022-10-15T07:34:00.099Z,98545.66
2022-10-15T07:39:04.289Z,98534.06
2022-10-15T07:44:07.408Z,98539.31
2022-10-15T07:49:11.298Z,98543.44
2022-10-15T07:54:15.724Z,98536.78
2022-10-15T07:59:18.391Z,98526.34
2022-10-15T08:04:21.463Z,98540.38
2022-10-15T08:09:26.616Z,98526.00
2022-10-15T08:14:29.369Z,98536.03
2022-10-15T08:19:32.209Z,98534.38
2022-10-15T08:24:36.319Z,98510.59
2022-10-15T08:29:39.163Z,98514.94
2022-10-15T08:34:41.820Z,98517.38
2022-10-15T08:39:46.778Z,98508.69
2022-10-15T08:44:52.831Z,98510.59
2022-10-15T08:49:56.846Z,98514.06
2022-10-15T08:55:02.940Z,98500.91
2022-10-15T09:00:09.975Z,98520.72
2022-10-15T09:05:24.092Z,98512.06
2022-10-15T09:10:36.334Z,98511.81
2022-10-15T09:15:43.959Z,98515.56
2022-10-15T09:20:47.051Z,98508.09
2022-10-15T09:25:56.437Z,98507.28
2022-10-15T09:30:59.696Z,98497.97
2022-10-15T09:36:09.992Z,98507.19
2022-10-15T09:41:22.923Z,98497.50
2022-10-15T09:46:25.808Z,98487.78
2022-10-15T09:51:31.098Z,98496.22
2022-10-15T09:56:37.413Z,98499.72
2022-10-15T10:01:40.181Z,98487.09
2022-10-15T10:06:47.785Z,98481.84
2022-10-15T10:11:53.401Z,98489.19
2022-10-15T10:17:07.861Z,98480.31
2022-10-15T10:22:16.801Z,98469.44
2022-10-15T10:27:23.516Z,98468.75
2022-10-15T10:32:30.427Z,98476.22
2022-10-15T10:37:43.101Z,98479.03
2022-10-15T10:42:48.232Z,98469.34
2022-10-15T10:47:53.933Z,98458.84
2022-10-15T10:52:57.420Z,98455.94
2022-10-15T10:58:05.462Z,98448.09
2022-10-15T11:03:17.929Z,98461.06
2022-10-15T11:08:28.002Z,98459.44
2022-10-15T11:13:48.353Z,98455.47
2022-10-15T11:18:58.150Z,98448.22
2022-10-15T11:24:08.242Z,98450.69
2022-10-15T11:29:20.804Z,98439.34
2022-10-15T11:34:32.614Z,98443.44
2022-10-15T11:39:52.672Z,98440.53
2022-10-15T11:45:07.186Z,98434.56
2022-10-15T11:50:18.962Z,98425.69
2022-10-15T11:55:22.827Z,98418.19
2022-10-15T12:00:33.133Z,98412.81
2022-10-15T12:05:39.458Z,98419.84
2022-10-15T12:10:58.606Z,98410.72
2022-10-15T12:16:11.552Z,98400.56
2022-10-15T12:21:37.070Z,98395.22
2022-10-15T12:26:39.935Z,98392.88
2022-10-15T12:31:49.920Z,98393.72
2022-10-15T12:37:00.862Z,98392.63
2022-10-15T12:42:03.553Z,98391.25
2022-10-15T12:47:09.061Z,98390.19
2022-10-15T12:52:45.241Z,98388.34
2022-10-15T12:57:59.704Z,98396.97
2022-10-15T13:03:15.479Z,98399.06
2022-10-15T13:08:24.050Z,98392.88
2022-10-15T13:13:29.506Z,98400.44
2022-10-15T13:18:33.764Z,98396.97
2022-10-15T13:23:36.935Z,98389.47
2022-10-15T13:28:41.895Z,98381.44
2022-10-15T13:33:49.122Z,98391.09
2022-10-15T13:38:59.099Z,98385.19
2022-10-15T13:44:02.587Z,98390.28
2022-10-15T13:49:12.808Z,98387.38
2022-10-15T13:54:18.178Z,98387.38
2022-10-15T13:59:21.426Z,98382.00
2022-10-15T14:04:25.432Z,98376.63
2022-10-15T14:09:30.980Z,98384.22
2022-10-15T14:14:35.663Z,98386.31
2022-10-15T14:19:40.130Z,98378.75
2022-10-15T14:24:42.824Z,98388.69
2022-10-15T14:29:47.235Z,98375.00
2022-10-15T14:34:51.694Z,98386.31
2022-10-15T14:40:04.898Z,98377.66
2022-10-15T14:45:19.467Z,98380.13
2022-10-15T14:50:25.858Z,98383.41
2022-10-15T14:55:33.059Z,98386.91
2022-10-15T15:00:40.705Z,98400.13
2022-10-15T15:05:49.118Z,98392.50
2022-10-15T15:10:52.728Z,98392.28
2022-10-15T15:15:55.837Z,98398.47
2022-10-15T15:21:02.927Z,98393.91
2022-10-15T15:26:05.743Z,98406.06
2022-10-15T15:31:13.619Z,98428.16
2022-10-15T15:36:22.508Z,98430.63
2022-10-15T15:41:26.327Z,98457.03
2022-10-15T15:46:29.007Z,98469.41
2022-10-15T15:51:33.805Z,98481.81
2022-10-15T15:56:37.320Z,98488.22
2022-10-15T16:01:40.125Z,98495.84
2022-10-15T16:06:44.483Z,98495.47
2022-10-15T16:11:47.205Z,98496.28
2022-10-15T16:16:49.938Z,98500.25
2022-10-15T16:21:53.999Z,98491.84
2022-10-15T16:26:56.763Z,98496.03
2022-10-15T16:31:59.471Z,98509.34
2022-10-15T16:37:03.540Z,98517.88
2022-10-15T16:42:06.411Z,98528.03
2022-10-15T16:47:09.156Z,98533.84
2022-10-15T16:52:13.144Z,98539.47
2022-10-15T16:57:15.825Z,98541.56
2022-10-15T17:02:18.688Z,98550.81
2022-10-15T17:07:23.099Z,98576.41
2022-10-15T17:12:26.726Z,98588.38
2022-10-15T17:17:29.862Z,98606.34
2022-10-15T17:22:34.975Z,98610.03
2022-10-15T17:27:37.677Z,98618.69
2022-10-15T17:32:40.317Z,98630.75
2022-10-15T17:37:44.813Z,98652.88
2022-10-15T17:42:47.493Z,98657.81
2022-10-15T17:47:50.291Z,98672.75
2022-10-15T17:52:54.917Z,98696.81
2022-10-15T17:57:58.326Z,98686.16
2022-10-15T18:03:01.053Z,98683.44
2022-10-15T18:08:05.265Z,98691.41
2022-10-15T18:13:08.395Z,98698.53
2022-10-15T18:18:11.081Z,98713.88
2022-10-15T18:23:15.200Z,98710.38
2022-10-15T18:28:19.450Z,98705.31
2022-10-15T18:33:22.162Z,98707.78
2022-10-15T18:38:26.223Z,98702.03
2022-10-15T18:43:28.992Z,98714.69
2022-10-15T18:48:32.963Z,98704.72
2022-10-15T18:53:37.671Z,98706.03
2022-10-15T18:58:42.761Z,98720.78
2022-10-15T19:03:45.518Z,98725.59
2022-10-15T19:08:49.952Z,98713.19
2022-10-15T19:13:52.767Z,98710.47
2022-10-15T19:18:55.456Z,98747.72
2022-10-15T19:24:00.172Z,98750.69
2022-10-15T19:29:03.291Z,98748.00
2022-10-15T19:34:06.443Z,98759.31
2022-10-15T19:39:13.429Z,98754.19
2022-10-15T19:44:17.916Z,98754.91
2022-10-15T19:49:20.633Z,98748.31
2022-10-15T19:59:28.419Z,98755.97
2022-10-15T20:04:31.169Z,98753.81
2022-10-15T20:09:35.233Z,98763.19
2022-10-15T20:14:38.023Z,98755.69
2022-10-15T20:19:40.712Z,98771.53
2022-10-15T20:24:44.778Z,98773.63
2022-10-15T20:29:47.530Z,98776.56
2022-10-15T20:34:50.239Z,98789.31
2022-10-15T20:39:54.353Z,98781.94
2022-10-15T20:44:57.139Z,98799.53
2022-10-15T20:50:00.001Z,98813.22
2022-10-15T20:55:04.219Z,98827.28
2022-10-15T21:00:08.951Z,98840.75
2022-10-15T21:05:11.602Z,98832.34
2022-10-15T21:10:15.865Z,98837.94
2022-10-15T21:15:18.754Z,98848.97
2022-10-15T21:20:21.397Z,98846.59
2022-10-15T21:25:25.649Z,98860.69
2022-10-15T21:30:28.360Z,98858.31
2022-10-15T21:35:31.012Z,98847.28
2022-10-15T21:40:35.147Z,98864.53
2022-10-15T21:45:37.801Z,98859.22
2022-10-15T21:50:40.478Z,98858.84
2022-10-15T21:55:52.959Z,98868.66
2022-10-15T22:00:55.793Z,98863.75
2022-10-15T22:05:59.577Z,98877.53
2022-10-15T22:11:11.547Z,98880.78
2022-10-15T22:16:15.075Z,98876.44
2022-10-15T22:21:19.402Z,98882.88
2022-10-15T22:26:24.774Z,98878.41
2022-10-15T22:31:28.058Z,98870.19
2022-10-15T22:36:32.119Z,98866.44
2022-10-15T22:41:38.579Z,98873.94
2022-10-15T22:46:41.715Z,98862.41
2022-10-15T22:51:44.582Z,98871.78
2022-10-15T22:56:49.075Z,98870.34
2022-10-15T23:01:51.769Z,98886.34
2022-10-15T23:06:54.532Z,98882.63
2022-10-15T23:11:58.536Z,98872.78
2022-10-15T23:17:01.300Z,98884.81
2022-10-15T23:22:04.019Z,98880.72
2022-10-15T23:27:08.091Z,98884.88
2022-10-15T23:32:11.102Z,98890.72
2022-10-15T23:37:13.804Z,98896.09
2022-10-15T23:42:17.824Z,98873.97
2022-10-15T23:47:20.558Z,98873.03
2022-10-15T23:52:23.295Z,98866.81
2022-10-15T23:57:27.779Z,98884.66
